sensor_id;sensor_type;location;lat;lon;timestamp;P1;durP1;ratioP1;P2;durP2;ratioP2
77814;SDS011;67002;52.124;21.210;2023-01-29T00:01:29;5.00;;;3.40;;
77814;SDS011;67002;52.124;21.210;2023-01-29T00:03:57;5.00;;;3.70;;
77814;SDS011;67002;52.124;21.210;2023-01-29T00:06:26;5.20;;;3.60;;
77814;SDS011;67002;52.124;21.210;2023-01-29T00:08:54;3.00;;;2.10;;
77814;SDS011;67002;52.124;21.210;2023-01-29T00:11:22;4.70;;;3.50;;
77814;SDS011;67002;52.124;21.210;2023-01-29T00:13:51;5.50;;;3.40;;
77814;SDS011;67002;52.124;21.210;2023-01-29T00:16:19;4.90;;;3.30;;
77814;SDS011;67002;52.124;21.210;2023-01-29T00:18:48;5.30;;;3.30;;
77814;SDS011;67002;52.124;21.210;2023-01-29T00:21:17;3.80;;;2.70;;
77814;SDS011;67002;52.124;21.210;2023-01-29T00:23:46;5.70;;;3.40;;
77814;SDS011;67002;52.124;21.210;2023-01-29T00:26:14;4.80;;;2.90;;
77814;SDS011;67002;52.124;21.210;2023-01-29T00:28:43;5.10;;;3.10;;
77814;SDS011;67002;52.124;21.210;2023-01-29T00:31:12;4.60;;;2.90;;
77814;SDS011;67002;52.124;21.210;2023-01-29T00:33:43;4.10;;;3.00;;
77814;SDS011;67002;52.124;21.210;2023-01-29T00:36:12;3.50;;;2.60;;
77814;SDS011;67002;52.124;21.210;2023-01-29T00:38:41;4.40;;;3.60;;
77814;SDS011;67002;52.124;21.210;2023-01-29T00:41:10;4.00;;;2.60;;
77814;SDS011;67002;52.124;21.210;2023-01-29T00:43:58;5.60;;;3.10;;
77814;SDS011;67002;52.124;21.210;2023-01-29T00:46:45;4.80;;;3.40;;
77814;SDS011;67002;52.124;21.210;2023-01-29T00:49:13;4.30;;;3.00;;
77814;SDS011;67002;52.124;21.210;2023-01-29T00:51:41;4.60;;;3.00;;
77814;SDS011;67002;52.124;21.210;2023-01-29T00:54:10;4.10;;;3.00;;
77814;SDS011;67002;52.124;21.210;2023-01-29T00:56:38;4.80;;;3.70;;
77814;SDS011;67002;52.124;21.210;2023-01-29T00:59:06;5.20;;;3.90;;
77814;SDS011;67002;52.124;21.210;2023-01-29T01:01:34;6.20;;;4.40;;
77814;SDS011;67002;52.124;21.210;2023-01-29T01:04:20;5.10;;;4.00;;
77814;SDS011;67002;52.124;21.210;2023-01-29T01:06:49;5.80;;;4.00;;
77814;SDS011;67002;52.124;21.210;2023-01-29T01:09:17;5.70;;;3.40;;
77814;SDS011;67002;52.124;21.210;2023-01-29T01:12:04;5.50;;;3.50;;
77814;SDS011;67002;52.124;21.210;2023-01-29T01:14:33;5.10;;;3.20;;
77814;SDS011;67002;52.124;21.210;2023-01-29T01:17:03;4.70;;;3.50;;
77814;SDS011;67002;52.124;21.210;2023-01-29T01:19:31;5.10;;;3.90;;
77814;SDS011;67002;52.124;21.210;2023-01-29T01:22:00;3.50;;;2.90;;
77814;SDS011;67002;52.124;21.210;2023-01-29T01:24:30;5.70;;;3.80;;
77814;SDS011;67002;52.124;21.210;2023-01-29T01:26:59;5.30;;;3.20;;
77814;SDS011;67002;52.124;21.210;2023-01-29T01:29:27;3.80;;;2.70;;
77814;SDS011;67002;52.124;21.210;2023-01-29T01:31:55;4.30;;;3.20;;
77814;SDS011;67002;52.124;21.210;2023-01-29T01:34:25;3.60;;;3.10;;
77814;SDS011;67002;52.124;21.210;2023-01-29T01:36:53;4.80;;;3.30;;
77814;SDS011;67002;52.124;21.210;2023-01-29T01:39:22;5.30;;;3.80;;
77814;SDS011;67002;52.124;21.210;2023-01-29T01:41:51;4.50;;;3.20;;
77814;SDS011;67002;52.124;21.210;2023-01-29T01:47:19;4.40;;;3.40;;
77814;SDS011;67002;52.124;21.210;2023-01-29T01:49:51;5.30;;;3.70;;
77814;SDS011;67002;52.124;21.210;2023-01-29T01:52:20;3.60;;;2.70;;
77814;SDS011;67002;52.124;21.210;2023-01-29T01:54:48;7.50;;;3.50;;
77814;SDS011;67002;52.124;21.210;2023-01-29T01:57:19;4.00;;;2.70;;
77814;SDS011;67002;52.124;21.210;2023-01-29T01:59:52;4.80;;;3.10;;
77814;SDS011;67002;52.124;21.210;2023-01-29T02:02:23;4.30;;;3.00;;
77814;SDS011;67002;52.124;21.210;2023-01-29T02:05:10;4.00;;;2.90;;
77814;SDS011;67002;52.124;21.210;2023-01-29T02:07:57;4.70;;;3.00;;
77814;SDS011;67002;52.124;21.210;2023-01-29T02:10:45;5.60;;;3.20;;
77814;SDS011;67002;52.124;21.210;2023-01-29T02:13:14;4.70;;;2.90;;
77814;SDS011;67002;52.124;21.210;2023-01-29T02:15:44;3.60;;;2.80;;
77814;SDS011;67002;52.124;21.210;2023-01-29T02:18:15;3.60;;;2.40;;
77814;SDS011;67002;52.124;21.210;2023-01-29T02:20:47;4.10;;;2.70;;
77814;SDS011;67002;52.124;21.210;2023-01-29T02:23:23;5.20;;;3.10;;
77814;SDS011;67002;52.124;21.210;2023-01-29T02:26:03;3.80;;;2.90;;
77814;SDS011;67002;52.124;21.210;2023-01-29T02:28:40;4.60;;;3.00;;
77814;SDS011;67002;52.124;21.210;2023-01-29T02:31:14;4.10;;;2.90;;
77814;SDS011;67002;52.124;21.210;2023-01-29T02:33:52;4.70;;;3.30;;
77814;SDS011;67002;52.124;21.210;2023-01-29T02:36:32;3.20;;;2.50;;
77814;SDS011;67002;52.124;21.210;2023-01-29T02:39:06;3.40;;;2.50;;
77814;SDS011;67002;52.124;21.210;2023-01-29T02:41:42;4.00;;;2.50;;
77814;SDS011;67002;52.124;21.210;2023-01-29T02:44:18;5.60;;;3.10;;
77814;SDS011;67002;52.124;21.210;2023-01-29T02:46:50;4.20;;;3.00;;
77814;SDS011;67002;52.124;21.210;2023-01-29T02:49:23;4.60;;;2.80;;
77814;SDS011;67002;52.124;21.210;2023-01-29T02:51:58;5.20;;;2.80;;
77814;SDS011;67002;52.124;21.210;2023-01-29T02:54:29;4.30;;;3.40;;
77814;SDS011;67002;52.124;21.210;2023-01-29T02:57:03;4.40;;;2.60;;
77814;SDS011;67002;52.124;21.210;2023-01-29T02:59:34;5.50;;;3.40;;
77814;SDS011;67002;52.124;21.210;2023-01-29T03:02:07;6.60;;;3.40;;
77814;SDS011;67002;52.124;21.210;2023-01-29T03:04:38;5.20;;;3.70;;
77814;SDS011;67002;52.124;21.210;2023-01-29T03:07:12;5.40;;;3.80;;
77814;SDS011;67002;52.124;21.210;2023-01-29T03:10:05;7.30;;;3.50;;
77814;SDS011;67002;52.124;21.210;2023-01-29T03:12:38;5.20;;;3.40;;
77814;SDS011;67002;52.124;21.210;2023-01-29T03:15:08;4.40;;;3.50;;
77814;SDS011;67002;52.124;21.210;2023-01-29T03:17:46;5.30;;;3.70;;
77814;SDS011;67002;52.124;21.210;2023-01-29T03:20:16;4.60;;;3.20;;
77814;SDS011;67002;52.124;21.210;2023-01-29T03:22:48;4.80;;;3.30;;
77814;SDS011;67002;52.124;21.210;2023-01-29T03:25:19;6.00;;;3.90;;
77814;SDS011;67002;52.124;21.210;2023-01-29T03:30:52;4.80;;;3.30;;
77814;SDS011;67002;52.124;21.210;2023-01-29T03:33:48;7.30;;;4.00;;
77814;SDS011;67002;52.124;21.210;2023-01-29T03:36:20;6.90;;;3.70;;
77814;SDS011;67002;52.124;21.210;2023-01-29T03:38:51;6.10;;;3.70;;
77814;SDS011;67002;52.124;21.210;2023-01-29T03:41:22;5.20;;;3.20;;
77814;SDS011;67002;52.124;21.210;2023-01-29T03:43:54;4.40;;;3.00;;
77814;SDS011;67002;52.124;21.210;2023-01-29T03:46:28;4.20;;;3.20;;
77814;SDS011;67002;52.124;21.210;2023-01-29T03:48:59;7.00;;;4.30;;
77814;SDS011;67002;52.124;21.210;2023-01-29T03:51:34;5.00;;;3.60;;
77814;SDS011;67002;52.124;21.210;2023-01-29T03:54:06;5.30;;;3.60;;
77814;SDS011;67002;52.124;21.210;2023-01-29T03:56:44;6.30;;;3.70;;
77814;SDS011;67002;52.124;21.210;2023-01-29T03:59:21;4.70;;;2.80;;
77814;SDS011;67002;52.124;21.210;2023-01-29T04:02:13;5.00;;;3.90;;
77814;SDS011;67002;52.124;21.210;2023-01-29T04:04:45;6.00;;;3.80;;
77814;SDS011;67002;52.124;21.210;2023-01-29T04:07:19;4.20;;;2.80;;
77814;SDS011;67002;52.124;21.210;2023-01-29T04:09:57;6.80;;;4.00;;
77814;SDS011;67002;52.124;21.210;2023-01-29T04:12:36;5.00;;;3.40;;
77814;SDS011;67002;52.124;21.210;2023-01-29T04:17:36;5.60;;;3.10;;
77814;SDS011;67002;52.124;21.210;2023-01-29T04:20:29;5.00;;;3.10;;
77814;SDS011;67002;52.124;21.210;2023-01-29T04:22:58;6.90;;;4.50;;
77814;SDS011;67002;52.124;21.210;2023-01-29T04:25:27;5.90;;;4.10;;
77814;SDS011;67002;52.124;21.210;2023-01-29T04:28:00;6.80;;;4.60;;
77814;SDS011;67002;52.124;21.210;2023-01-29T04:30:34;5.90;;;4.20;;
77814;SDS011;67002;52.124;21.210;2023-01-29T04:33:11;5.00;;;3.60;;
77814;SDS011;67002;52.124;21.210;2023-01-29T04:35:53;5.90;;;3.80;;
77814;SDS011;67002;52.124;21.210;2023-01-29T04:38:36;5.50;;;3.70;;
77814;SDS011;67002;52.124;21.210;2023-01-29T04:41:12;6.00;;;4.20;;
77814;SDS011;67002;52.124;21.210;2023-01-29T04:43:46;5.50;;;4.00;;
77814;SDS011;67002;52.124;21.210;2023-01-29T04:46:24;4.40;;;3.30;;
77814;SDS011;67002;52.124;21.210;2023-01-29T04:48:59;6.20;;;3.20;;
77814;SDS011;67002;52.124;21.210;2023-01-29T04:51:34;6.60;;;3.70;;
77814;SDS011;67002;52.124;21.210;2023-01-29T04:54:13;4.30;;;2.90;;
77814;SDS011;67002;52.124;21.210;2023-01-29T04:56:47;4.40;;;2.90;;
77814;SDS011;67002;52.124;21.210;2023-01-29T04:59:20;5.40;;;3.60;;
77814;SDS011;67002;52.124;21.210;2023-01-29T05:01:51;6.80;;;3.60;;
77814;SDS011;67002;52.124;21.210;2023-01-29T05:04:20;5.20;;;3.40;;
77814;SDS011;67002;52.124;21.210;2023-01-29T05:06:48;6.90;;;4.20;;
77814;SDS011;67002;52.124;21.210;2023-01-29T05:09:17;5.70;;;4.20;;
77814;SDS011;67002;52.124;21.210;2023-01-29T05:11:45;6.30;;;4.30;;
77814;SDS011;67002;52.124;21.210;2023-01-29T05:14:14;5.60;;;3.70;;
77814;SDS011;67002;52.124;21.210;2023-01-29T05:16:46;6.20;;;4.00;;
77814;SDS011;67002;52.124;21.210;2023-01-29T05:19:15;6.10;;;4.30;;
77814;SDS011;67002;52.124;21.210;2023-01-29T05:21:44;5.70;;;3.40;;
77814;SDS011;67002;52.124;21.210;2023-01-29T05:24:14;5.90;;;3.60;;
77814;SDS011;67002;52.124;21.210;2023-01-29T05:26:45;5.10;;;3.30;;
77814;SDS011;67002;52.124;21.210;2023-01-29T05:29:32;6.20;;;4.00;;
77814;SDS011;67002;52.124;21.210;2023-01-29T05:32:01;4.60;;;3.20;;
77814;SDS011;67002;52.124;21.210;2023-01-29T05:34:29;6.60;;;3.70;;
77814;SDS011;67002;52.124;21.210;2023-01-29T05:36:57;4.80;;;3.50;;
77814;SDS011;67002;52.124;21.210;2023-01-29T05:39:26;8.80;;;5.00;;
77814;SDS011;67002;52.124;21.210;2023-01-29T05:41:54;5.90;;;4.10;;
77814;SDS011;67002;52.124;21.210;2023-01-29T05:44:22;5.90;;;4.00;;
77814;SDS011;67002;52.124;21.210;2023-01-29T05:46:50;6.60;;;4.00;;
77814;SDS011;67002;52.124;21.210;2023-01-29T05:49:19;5.50;;;3.80;;
77814;SDS011;67002;52.124;21.210;2023-01-29T05:51:48;6.10;;;4.30;;
77814;SDS011;67002;52.124;21.210;2023-01-29T05:54:16;6.90;;;3.70;;
77814;SDS011;67002;52.124;21.210;2023-01-29T05:56:44;4.90;;;3.70;;
77814;SDS011;67002;52.124;21.210;2023-01-29T05:59:12;7.00;;;4.30;;
77814;SDS011;67002;52.124;21.210;2023-01-29T06:04:09;4.40;;;3.20;;
77814;SDS011;67002;52.124;21.210;2023-01-29T06:06:37;4.40;;;3.50;;
77814;SDS011;67002;52.124;21.210;2023-01-29T06:09:05;5.40;;;3.90;;
77814;SDS011;67002;52.124;21.210;2023-01-29T06:11:35;6.80;;;3.80;;
77814;SDS011;67002;52.124;21.210;2023-01-29T06:14:04;5.60;;;3.30;;
77814;SDS011;67002;52.124;21.210;2023-01-29T06:16:32;5.50;;;4.20;;
77814;SDS011;67002;52.124;21.210;2023-01-29T06:19:01;8.70;;;5.00;;
77814;SDS011;67002;52.124;21.210;2023-01-29T06:21:29;7.60;;;5.30;;
77814;SDS011;67002;52.124;21.210;2023-01-29T06:23:57;5.50;;;4.10;;
77814;SDS011;67002;52.124;21.210;2023-01-29T06:26:26;6.10;;;4.30;;
77814;SDS011;67002;52.124;21.210;2023-01-29T06:28:54;7.30;;;5.00;;
77814;SDS011;67002;52.124;21.210;2023-01-29T06:31:22;6.70;;;4.50;;
77814;SDS011;67002;52.124;21.210;2023-01-29T06:34:05;6.90;;;4.70;;
77814;SDS011;67002;52.124;21.210;2023-01-29T06:36:33;6.80;;;4.40;;
77814;SDS011;67002;52.124;21.210;2023-01-29T06:39:02;8.50;;;4.40;;
77814;SDS011;67002;52.124;21.210;2023-01-29T06:41:31;5.30;;;3.60;;
77814;SDS011;67002;52.124;21.210;2023-01-29T06:43:59;6.30;;;4.00;;
77814;SDS011;67002;52.124;21.210;2023-01-29T06:46:27;6.70;;;3.80;;
77814;SDS011;67002;52.124;21.210;2023-01-29T06:48:57;6.80;;;4.10;;
77814;SDS011;67002;52.124;21.210;2023-01-29T06:51:26;6.80;;;4.40;;
77814;SDS011;67002;52.124;21.210;2023-01-29T06:53:54;8.90;;;5.40;;
77814;SDS011;67002;52.124;21.210;2023-01-29T06:56:23;8.90;;;4.80;;
77814;SDS011;67002;52.124;21.210;2023-01-29T06:58:51;5.80;;;3.60;;
77814;SDS011;67002;52.124;21.210;2023-01-29T07:01:19;6.90;;;4.60;;
77814;SDS011;67002;52.124;21.210;2023-01-29T07:04:02;5.90;;;4.50;;
77814;SDS011;67002;52.124;21.210;2023-01-29T07:06:30;7.20;;;4.70;;
77814;SDS011;67002;52.124;21.210;2023-01-29T07:08:59;7.50;;;4.80;;
77814;SDS011;67002;52.124;21.210;2023-01-29T07:11:27;7.10;;;4.30;;
77814;SDS011;67002;52.124;21.210;2023-01-29T07:13:56;6.10;;;4.10;;
77814;SDS011;67002;52.124;21.210;2023-01-29T07:16:24;7.60;;;3.60;;
77814;SDS011;67002;52.124;21.210;2023-01-29T07:18:53;7.60;;;4.10;;
77814;SDS011;67002;52.124;21.210;2023-01-29T07:21:21;7.40;;;4.70;;
77814;SDS011;67002;52.124;21.210;2023-01-29T07:23:49;6.40;;;4.30;;
77814;SDS011;67002;52.124;21.210;2023-01-29T07:26:17;6.50;;;4.30;;
77814;SDS011;67002;52.124;21.210;2023-01-29T07:28:46;8.00;;;4.90;;
77814;SDS011;67002;52.124;21.210;2023-01-29T07:31:14;8.60;;;4.30;;
77814;SDS011;67002;52.124;21.210;2023-01-29T07:33:42;6.50;;;4.40;;
77814;SDS011;67002;52.124;21.210;2023-01-29T07:38:39;6.70;;;3.90;;
77814;SDS011;67002;52.124;21.210;2023-01-29T07:41:07;6.30;;;4.20;;
77814;SDS011;67002;52.124;21.210;2023-01-29T07:43:36;4.40;;;3.30;;
77814;SDS011;67002;52.124;21.210;2023-01-29T07:46:04;7.00;;;4.20;;
77814;SDS011;67002;52.124;21.210;2023-01-29T07:48:33;4.40;;;3.00;;
77814;SDS011;67002;52.124;21.210;2023-01-29T07:51:01;6.30;;;4.30;;
77814;SDS011;67002;52.124;21.210;2023-01-29T07:53:30;3.80;;;2.90;;
77814;SDS011;67002;52.124;21.210;2023-01-29T07:55:58;7.60;;;4.10;;
77814;SDS011;67002;52.124;21.210;2023-01-29T07:58:26;8.00;;;4.20;;
77814;SDS011;67002;52.124;21.210;2023-01-29T08:00:54;5.00;;;4.10;;
77814;SDS011;67002;52.124;21.210;2023-01-29T08:03:23;10.00;;;5.20;;
77814;SDS011;67002;52.124;21.210;2023-01-29T08:05:51;5.50;;;3.70;;
77814;SDS011;67002;52.124;21.210;2023-01-29T08:08:19;5.30;;;2.90;;
77814;SDS011;67002;52.124;21.210;2023-01-29T08:10:48;6.00;;;4.50;;
77814;SDS011;67002;52.124;21.210;2023-01-29T08:13:16;7.10;;;4.30;;
77814;SDS011;67002;52.124;21.210;2023-01-29T08:15:44;6.80;;;3.80;;
77814;SDS011;67002;52.124;21.210;2023-01-29T08:18:13;8.00;;;4.60;;
77814;SDS011;67002;52.124;21.210;2023-01-29T08:20:41;6.70;;;4.70;;
77814;SDS011;67002;52.124;21.210;2023-01-29T08:23:11;5.20;;;3.30;;
77814;SDS011;67002;52.124;21.210;2023-01-29T08:25:40;4.70;;;3.40;;
77814;SDS011;67002;52.124;21.210;2023-01-29T08:28:09;7.50;;;4.60;;
77814;SDS011;67002;52.124;21.210;2023-01-29T08:30:38;6.80;;;4.30;;
77814;SDS011;67002;52.124;21.210;2023-01-29T08:33:06;6.70;;;4.30;;
77814;SDS011;67002;52.124;21.210;2023-01-29T08:35:34;7.00;;;3.80;;
77814;SDS011;67002;52.124;21.210;2023-01-29T08:38:03;7.60;;;5.30;;
77814;SDS011;67002;52.124;21.210;2023-01-29T08:40:32;5.30;;;3.70;;
77814;SDS011;67002;52.124;21.210;2023-01-29T08:43:02;8.10;;;4.90;;
77814;SDS011;67002;52.124;21.210;2023-01-29T08:45:34;8.30;;;4.10;;
77814;SDS011;67002;52.124;21.210;2023-01-29T08:48:04;7.20;;;4.60;;
77814;SDS011;67002;52.124;21.210;2023-01-29T08:50:33;7.70;;;4.00;;
77814;SDS011;67002;52.124;21.210;2023-01-29T08:53:02;4.30;;;2.30;;
77814;SDS011;67002;52.124;21.210;2023-01-29T08:55:34;6.70;;;4.30;;
77814;SDS011;67002;52.124;21.210;2023-01-29T08:58:03;5.90;;;4.10;;
77814;SDS011;67002;52.124;21.210;2023-01-29T09:00:32;5.90;;;3.70;;
77814;SDS011;67002;52.124;21.210;2023-01-29T09:03:00;7.90;;;4.60;;
77814;SDS011;67002;52.124;21.210;2023-01-29T09:05:29;6.70;;;3.70;;
77814;SDS011;67002;52.124;21.210;2023-01-29T09:07:57;5.90;;;4.10;;
77814;SDS011;67002;52.124;21.210;2023-01-29T09:10:26;5.70;;;3.50;;
77814;SDS011;67002;52.124;21.210;2023-01-29T09:12:54;6.10;;;4.50;;
77814;SDS011;67002;52.124;21.210;2023-01-29T09:15:22;10.10;;;4.10;;
77814;SDS011;67002;52.124;21.210;2023-01-29T09:17:51;5.10;;;2.50;;
77814;SDS011;67002;52.124;21.210;2023-01-29T09:20:19;7.70;;;3.50;;
77814;SDS011;67002;52.124;21.210;2023-01-29T09:22:48;6.40;;;4.10;;
77814;SDS011;67002;52.124;21.210;2023-01-29T09:25:19;6.80;;;4.10;;
77814;SDS011;67002;52.124;21.210;2023-01-29T09:27:47;8.90;;;3.80;;
77814;SDS011;67002;52.124;21.210;2023-01-29T09:30:16;6.00;;;3.90;;
77814;SDS011;67002;52.124;21.210;2023-01-29T09:32:45;7.60;;;4.60;;
77814;SDS011;67002;52.124;21.210;2023-01-29T09:35:20;7.10;;;4.70;;
77814;SDS011;67002;52.124;21.210;2023-01-29T09:37:49;6.80;;;4.40;;
77814;SDS011;67002;52.124;21.210;2023-01-29T09:40:21;7.50;;;4.70;;
77814;SDS011;67002;52.124;21.210;2023-01-29T09:42:53;7.80;;;4.20;;
77814;SDS011;67002;52.124;21.210;2023-01-29T09:45:24;7.00;;;4.20;;
77814;SDS011;67002;52.124;21.210;2023-01-29T09:47:55;6.30;;;3.80;;
77814;SDS011;67002;52.124;21.210;2023-01-29T09:50:27;7.50;;;4.60;;
77814;SDS011;67002;52.124;21.210;2023-01-29T09:52:59;7.40;;;4.50;;
77814;SDS011;67002;52.124;21.210;2023-01-29T09:55:29;6.20;;;3.80;;
77814;SDS011;67002;52.124;21.210;2023-01-29T09:58:02;8.30;;;5.10;;
77814;SDS011;67002;52.124;21.210;2023-01-29T10:00:35;7.20;;;4.80;;
77814;SDS011;67002;52.124;21.210;2023-01-29T10:03:11;7.20;;;5.00;;
77814;SDS011;67002;52.124;21.210;2023-01-29T10:05:51;6.60;;;4.40;;
77814;SDS011;67002;52.124;21.210;2023-01-29T10:08:37;10.50;;;5.40;;
77814;SDS011;67002;52.124;21.210;2023-01-29T10:11:26;7.50;;;4.90;;
77814;SDS011;67002;52.124;21.210;2023-01-29T10:14:06;6.90;;;4.20;;
77814;SDS011;67002;52.124;21.210;2023-01-29T10:16:42;6.50;;;4.00;;
77814;SDS011;67002;52.124;21.210;2023-01-29T10:19:19;7.60;;;5.10;;
77814;SDS011;67002;52.124;21.210;2023-01-29T10:22:02;5.50;;;4.00;;
77814;SDS011;67002;52.124;21.210;2023-01-29T10:24:40;9.20;;;4.70;;
77814;SDS011;67002;52.124;21.210;2023-01-29T10:27:13;8.30;;;5.00;;
77814;SDS011;67002;52.124;21.210;2023-01-29T10:29:43;8.70;;;5.40;;
77814;SDS011;67002;52.124;21.210;2023-01-29T10:32:14;7.30;;;4.80;;
77814;SDS011;67002;52.124;21.210;2023-01-29T10:34:45;9.20;;;5.20;;
77814;SDS011;67002;52.124;21.210;2023-01-29T10:37:17;10.30;;;5.70;;
77814;SDS011;67002;52.124;21.210;2023-01-29T10:39:47;8.40;;;5.60;;
77814;SDS011;67002;52.124;21.210;2023-01-29T10:42:21;9.00;;;5.40;;
77814;SDS011;67002;52.124;21.210;2023-01-29T10:44:56;11.20;;;5.70;;
77814;SDS011;67002;52.124;21.210;2023-01-29T10:47:36;7.80;;;5.30;;
77814;SDS011;67002;52.124;21.210;2023-01-29T10:50:17;7.10;;;4.40;;
77814;SDS011;67002;52.124;21.210;2023-01-29T10:53:11;11.10;;;5.30;;
77814;SDS011;67002;52.124;21.210;2023-01-29T10:55:48;7.80;;;5.30;;
77814;SDS011;67002;52.124;21.210;2023-01-29T10:58:23;9.50;;;5.70;;
77814;SDS011;67002;52.124;21.210;2023-01-29T11:00:55;7.60;;;4.70;;
77814;SDS011;67002;52.124;21.210;2023-01-29T11:05:56;5.90;;;3.40;;
77814;SDS011;67002;52.124;21.210;2023-01-29T11:08:30;8.20;;;4.90;;
77814;SDS011;67002;52.124;21.210;2023-01-29T11:11:02;8.60;;;4.80;;
77814;SDS011;67002;52.124;21.210;2023-01-29T11:13:35;12.20;;;5.80;;
77814;SDS011;67002;52.124;21.210;2023-01-29T11:16:08;8.90;;;4.70;;
77814;SDS011;67002;52.124;21.210;2023-01-29T11:18:56;7.70;;;4.70;;
77814;SDS011;67002;52.124;21.210;2023-01-29T11:21:26;11.70;;;5.70;;
77814;SDS011;67002;52.124;21.210;2023-01-29T11:24:05;10.30;;;5.90;;
77814;SDS011;67002;52.124;21.210;2023-01-29T11:26:39;11.60;;;6.40;;
77814;SDS011;67002;52.124;21.210;2023-01-29T11:31:58;9.90;;;5.50;;
77814;SDS011;67002;52.124;21.210;2023-01-29T11:34:28;8.90;;;4.80;;
77814;SDS011;67002;52.124;21.210;2023-01-29T11:36:57;12.20;;;5.50;;
77814;SDS011;67002;52.124;21.210;2023-01-29T11:39:26;10.10;;;5.60;;
77814;SDS011;67002;52.124;21.210;2023-01-29T11:41:56;10.80;;;5.30;;
77814;SDS011;67002;52.124;21.210;2023-01-29T11:44:27;13.10;;;6.00;;
77814;SDS011;67002;52.124;21.210;2023-01-29T11:46:57;9.40;;;5.70;;
77814;SDS011;67002;52.124;21.210;2023-01-29T11:49:34;10.20;;;5.60;;
77814;SDS011;67002;52.124;21.210;2023-01-29T11:52:03;11.10;;;6.30;;
77814;SDS011;67002;52.124;21.210;2023-01-29T11:54:34;13.70;;;7.40;;
77814;SDS011;67002;52.124;21.210;2023-01-29T11:57:05;10.80;;;7.20;;
77814;SDS011;67002;52.124;21.210;2023-01-29T11:59:48;9.50;;;5.40;;
77814;SDS011;67002;52.124;21.210;2023-01-29T12:02:22;10.00;;;6.00;;
77814;SDS011;67002;52.124;21.210;2023-01-29T12:04:53;14.10;;;8.10;;
77814;SDS011;67002;52.124;21.210;2023-01-29T12:07:23;12.50;;;5.60;;
77814;SDS011;67002;52.124;21.210;2023-01-29T12:09:52;12.50;;;5.70;;
77814;SDS011;67002;52.124;21.210;2023-01-29T12:12:29;6.90;;;4.20;;
77814;SDS011;67002;52.124;21.210;2023-01-29T12:15:02;15.40;;;8.20;;
77814;SDS011;67002;52.124;21.210;2023-01-29T12:17:48;8.80;;;4.70;;
77814;SDS011;67002;52.124;21.210;2023-01-29T12:20:22;11.00;;;5.10;;
77814;SDS011;67002;52.124;21.210;2023-01-29T12:22:56;10.70;;;5.30;;
77814;SDS011;67002;52.124;21.210;2023-01-29T12:25:34;6.20;;;3.60;;
77814;SDS011;67002;52.124;21.210;2023-01-29T12:28:09;4.70;;;3.50;;
77814;SDS011;67002;52.124;21.210;2023-01-29T12:30:46;8.20;;;5.20;;
77814;SDS011;67002;52.124;21.210;2023-01-29T12:33:20;9.90;;;4.90;;
77814;SDS011;67002;52.124;21.210;2023-01-29T12:35:53;8.20;;;4.00;;
77814;SDS011;67002;52.124;21.210;2023-01-29T12:38:23;11.30;;;5.60;;
77814;SDS011;67002;52.124;21.210;2023-01-29T12:40:52;9.50;;;5.50;;
77814;SDS011;67002;52.124;21.210;2023-01-29T12:43:25;6.10;;;2.90;;
77814;SDS011;67002;52.124;21.210;2023-01-29T12:45:56;11.40;;;5.90;;
77814;SDS011;67002;52.124;21.210;2023-01-29T12:48:26;9.70;;;5.30;;
77814;SDS011;67002;52.124;21.210;2023-01-29T12:50:58;8.20;;;4.40;;
77814;SDS011;67002;52.124;21.210;2023-01-29T12:53:32;9.80;;;4.90;;
77814;SDS011;67002;52.124;21.210;2023-01-29T12:56:04;7.90;;;5.00;;
77814;SDS011;67002;52.124;21.210;2023-01-29T12:58:36;7.40;;;4.30;;
77814;SDS011;67002;52.124;21.210;2023-01-29T13:01:09;7.70;;;3.70;;
77814;SDS011;67002;52.124;21.210;2023-01-29T13:03:43;9.60;;;5.40;;
77814;SDS011;67002;52.124;21.210;2023-01-29T13:06:15;10.90;;;5.80;;
77814;SDS011;67002;52.124;21.210;2023-01-29T13:08:45;9.40;;;5.90;;
77814;SDS011;67002;52.124;21.210;2023-01-29T13:11:18;9.40;;;6.50;;
77814;SDS011;67002;52.124;21.210;2023-01-29T13:13:49;11.70;;;6.20;;
77814;SDS011;67002;52.124;21.210;2023-01-29T13:16:21;11.00;;;7.10;;
77814;SDS011;67002;52.124;21.210;2023-01-29T13:18:52;9.30;;;5.10;;
77814;SDS011;67002;52.124;21.210;2023-01-29T13:21:24;11.40;;;7.40;;
77814;SDS011;67002;52.124;21.210;2023-01-29T13:23:54;11.10;;;7.20;;
77814;SDS011;67002;52.124;21.210;2023-01-29T13:26:23;10.60;;;6.10;;
77814;SDS011;67002;52.124;21.210;2023-01-29T13:31:25;11.70;;;5.70;;
77814;SDS011;67002;52.124;21.210;2023-01-29T13:36:25;11.50;;;6.60;;
77814;SDS011;67002;52.124;21.210;2023-01-29T13:38:57;12.30;;;6.40;;
77814;SDS011;67002;52.124;21.210;2023-01-29T13:41:31;10.10;;;5.80;;
77814;SDS011;67002;52.124;21.210;2023-01-29T13:44:00;11.30;;;7.90;;
77814;SDS011;67002;52.124;21.210;2023-01-29T13:46:28;8.00;;;4.80;;
77814;SDS011;67002;52.124;21.210;2023-01-29T13:48:57;12.90;;;7.70;;
77814;SDS011;67002;52.124;21.210;2023-01-29T13:51:31;10.80;;;7.20;;
77814;SDS011;67002;52.124;21.210;2023-01-29T13:54:01;7.00;;;4.50;;
77814;SDS011;67002;52.124;21.210;2023-01-29T13:59:47;10.70;;;5.70;;
77814;SDS011;67002;52.124;21.210;2023-01-29T14:02:21;11.40;;;6.40;;
77814;SDS011;67002;52.124;21.210;2023-01-29T14:04:51;10.50;;;7.00;;
77814;SDS011;67002;52.124;21.210;2023-01-29T14:07:57;10.90;;;7.50;;
77814;SDS011;67002;52.124;21.210;2023-01-29T14:10:27;12.70;;;7.60;;
77814;SDS011;67002;52.124;21.210;2023-01-29T14:13:24;10.80;;;7.10;;
77814;SDS011;67002;52.124;21.210;2023-01-29T14:18:54;9.60;;;6.60;;
77814;SDS011;67002;52.124;21.210;2023-01-29T14:21:25;10.90;;;6.80;;
77814;SDS011;67002;52.124;21.210;2023-01-29T14:23:58;8.70;;;6.00;;
77814;SDS011;67002;52.124;21.210;2023-01-29T14:26:39;9.30;;;6.10;;
77814;SDS011;67002;52.124;21.210;2023-01-29T14:29:16;9.80;;;6.20;;
77814;SDS011;67002;52.124;21.210;2023-01-29T14:32:06;11.90;;;7.70;;
77814;SDS011;67002;52.124;21.210;2023-01-29T14:34:41;12.20;;;7.70;;
77814;SDS011;67002;52.124;21.210;2023-01-29T14:37:18;7.90;;;5.20;;
77814;SDS011;67002;52.124;21.210;2023-01-29T14:39:48;10.00;;;6.40;;
77814;SDS011;67002;52.124;21.210;2023-01-29T14:42:20;10.40;;;6.90;;
77814;SDS011;67002;52.124;21.210;2023-01-29T14:47:56;8.10;;;5.60;;
77814;SDS011;67002;52.124;21.210;2023-01-29T14:50:42;18.90;;;10.40;;
77814;SDS011;67002;52.124;21.210;2023-01-29T14:53:15;9.80;;;7.10;;
77814;SDS011;67002;52.124;21.210;2023-01-29T14:55:49;11.10;;;7.80;;
77814;SDS011;67002;52.124;21.210;2023-01-29T14:58:22;9.70;;;6.70;;
77814;SDS011;67002;52.124;21.210;2023-01-29T15:00:54;9.80;;;6.70;;
77814;SDS011;67002;52.124;21.210;2023-01-29T15:03:26;10.00;;;6.40;;
77814;SDS011;67002;52.124;21.210;2023-01-29T15:05:57;8.30;;;4.90;;
77814;SDS011;67002;52.124;21.210;2023-01-29T15:08:28;9.50;;;5.50;;
77814;SDS011;67002;52.124;21.210;2023-01-29T15:11:01;8.20;;;4.90;;
77814;SDS011;67002;52.124;21.210;2023-01-29T15:13:52;9.60;;;6.50;;
77814;SDS011;67002;52.124;21.210;2023-01-29T15:16:24;11.10;;;7.40;;
77814;SDS011;67002;52.124;21.210;2023-01-29T15:18:55;10.40;;;6.50;;
77814;SDS011;67002;52.124;21.210;2023-01-29T15:21:30;10.30;;;6.20;;
77814;SDS011;67002;52.124;21.210;2023-01-29T15:24:03;11.50;;;6.10;;
77814;SDS011;67002;52.124;21.210;2023-01-29T15:26:32;10.40;;;7.10;;
77814;SDS011;67002;52.124;21.210;2023-01-29T15:29:02;9.60;;;6.20;;
77814;SDS011;67002;52.124;21.210;2023-01-29T15:31:31;10.90;;;7.30;;
77814;SDS011;67002;52.124;21.210;2023-01-29T15:34:03;12.20;;;6.80;;
77814;SDS011;67002;52.124;21.210;2023-01-29T15:36:33;12.90;;;8.70;;